Time;durP1;ratioP1;P1;durP2;ratioP2;P2;SDS_P1;SDS_P2;PMS_P1;PMS_P2;Temp;Humidity;BMP_temperature;BMP_pressure;BME280_temperature;BME280_humidity;BME280_pressure;Samples;Min_cycle;Max_cycle;Signal;HPM_P1;HPM_P2
2022/06/24 00:00:39;;;;;;;8.60;8.07;;;;;;;16.08;86.65;92725.22;5003067;28;21287;-74
2022/06/24 00:03:05;;;;;;;9.50;9.00;;;;;;;16.40;85.90;92750.34;5004210;28;20181;-73
2022/06/24 00:05:34;;;;;;;8.87;8.33;;;;;;;16.53;85.96;92754.72;4999790;28;20188;-76
2022/06/24 00:08:00;;;;;;;9.00;8.60;;;;;;;16.43;85.75;92749.72;5003953;28;20230;-76
2022/06/24 00:10:31;;;;;;;8.70;7.87;;;;;;;16.54;84.78;92756.25;5002237;28;20179;-76
2022/06/24 00:12:56;;;;;;;8.80;8.20;;;;;;;16.54;84.35;92751.00;5005151;28;20187;-75
2022/06/24 00:15:24;;;;;;;9.13;8.63;;;;;;;16.65;83.95;92762.78;5003977;28;20222;-75
2022/06/24 00:17:49;;;;;;;9.47;8.67;;;;;;;16.53;85.70;92767.91;5002760;28;20220;-76
2022/06/24 00:20:19;;;;;;;10.30;9.57;;;;;;;16.50;84.88;92740.28;5002936;28;20256;-75
2022/06/24 00:22:50;;;;;;;8.60;8.20;;;;;;;16.60;85.18;92766.34;5004402;28;20278;-75
2022/06/24 00:25:24;;;;;;;8.60;8.10;;;;;;;16.67;84.16;92776.44;5004024;28;20191;-75
2022/06/24 00:28:04;;;;;;;9.17;8.47;;;;;;;16.67;84.13;92787.72;5002540;28;20222;-75
2022/06/24 00:30:36;;;;;;;8.13;7.77;;;;;;;16.59;84.43;92791.13;5004186;28;20279;-76
2022/06/24 00:33:14;;;;;;;9.80;9.13;;;;;;;16.47;84.17;92777.06;5003587;28;20196;-75
2022/06/24 00:35:42;;;;;;;8.23;7.60;;;;;;;16.30;85.81;92783.03;4990849;28;20231;-76
2022/06/24 00:38:22;;;;;;;9.07;8.47;;;;;;;16.18;87.09;92790.78;5002770;28;20209;-75
2022/06/24 00:41:01;;;;;;;8.70;8.20;;;;;;;16.02;86.43;92768.59;5004188;28;20263;-76
2022/06/24 00:43:33;;;;;;;8.30;7.80;;;;;;;16.17;87.25;92791.88;5001939;28;20191;-74
2022/06/24 00:46:31;;;;;;;9.17;8.47;;;;;;;16.08;88.77;92802.38;5002674;28;20741;-76
2022/06/24 00:48:58;;;;;;;8.87;8.37;;;;;;;16.28;87.26;92794.97;5000025;28;20188;-76
2022/06/24 00:51:32;;;;;;;8.90;8.40;;;;;;;16.19;87.53;92796.84;5001837;28;20223;-75
2022/06/24 00:54:05;;;;;;;8.97;8.47;;;;;;;16.26;86.91;92792.66;5000559;28;20175;-75
2022/06/24 00:56:32;;;;;;;8.63;8.13;;;;;;;16.21;86.75;92766.44;5000955;28;20224;-75
2022/06/24 00:59:00;;;;;;;9.50;8.77;;;;;;;16.25;86.06;92791.09;5003668;28;20221;-76
2022/06/24 01:01:36;;;;;;;9.20;8.70;;;;;;;16.12;87.00;92775.41;5000968;28;20219;-76
2022/06/24 01:04:04;;;;;;;9.30;8.80;;;;;;;16.16;86.86;92792.94;5002220;28;20779;-75
2022/06/24 01:06:30;;;;;;;9.60;9.00;;;;;;;16.28;86.52;92785.19;4998078;28;20326;-76
2022/06/24 01:08:57;;;;;;;9.40;8.90;;;;;;;16.34;86.49;92785.84;5000127;28;20187;-76
2022/06/24 01:11:26;;;;;;;9.40;8.90;;;;;;;16.41;86.61;92799.31;5000599;28;20224;-75
2022/06/24 01:13:53;;;;;;;11.43;8.73;;;;;;;16.41;86.52;92804.59;5004676;28;20741;-75
2022/06/24 01:16:23;;;;;;;9.80;9.30;;;;;;;16.21;86.53;92795.44;4999318;28;20219;-75
2022/06/24 01:18:53;;;;;;;8.73;8.33;;;;;;;16.54;86.16;92809.75;5004129;28;20211;-76
2022/06/24 01:21:37;;;;;;;8.67;8.27;;;;;;;16.64;85.55;92800.78;4997874;28;20279;-75
2022/06/24 01:24:07;;;;;;;8.87;8.37;;;;;;;16.50;87.05;92789.59;4996284;28;20202;-76
2022/06/24 01:26:34;;;;;;;9.30;8.70;;;;;;;16.69;86.10;92797.97;5004301;28;20231;-75
2022/06/24 01:28:59;;;;;;;9.57;8.87;;;;;;;16.73;86.05;92786.47;5009299;28;20187;-75
2022/06/24 01:31:25;;;;;;;9.37;8.83;;;;;;;16.38;87.49;92786.75;5005458;28;20229;-75
2022/06/24 01:33:50;;;;;;;9.30;8.80;;;;;;;16.33;88.28;92787.69;5009355;28;20216;-76
2022/06/24 01:36:16;;;;;;;10.67;9.87;;;;;;;16.30;88.76;92774.34;5007720;28;20226;-75
2022/06/24 01:38:41;;;;;;;10.73;9.67;;;;;;;16.39;89.33;92790.97;5007837;28;20218;-75
2022/06/24 01:41:08;;;;;;;9.83;9.23;;;;;;;16.64;88.65;92792.88;5004897;28;21759;-76
2022/06/24 01:43:34;;;;;;;9.57;8.97;;;;;;;16.49;88.45;92773.00;5010162;28;20207;-75
2022/06/24 01:45:59;;;;;;;10.03;9.27;;;;;;;16.29;88.46;92768.31;5008515;28;20227;-75
2022/06/24 01:48:25;;;;;;;9.57;8.97;;;;;;;16.47;88.29;92793.63;5008456;28;20196;-76
2022/06/24 01:50:50;;;;;;;10.13;9.60;;;;;;;16.07;88.65;92773.72;4991152;28;20230;-76
2022/06/24 01:53:16;;;;;;;9.53;9.03;;;;;;;16.04;87.61;92779.59;5007861;28;20194;-75
2022/06/24 01:55:42;;;;;;;8.90;8.40;;;;;;;16.08;87.07;92772.63;5006835;28;20803;-76
2022/06/24 01:58:07;;;;;;;9.47;8.87;;;;;;;16.09;86.99;92779.47;5009023;28;20225;-75
2022/06/24 02:00:33;;;;;;;9.70;9.20;;;;;;;16.01;87.37;92769.69;5007724;28;20188;-75
2022/06/24 02:02:59;;;;;;;9.93;9.43;;;;;;;15.95;87.02;92768.28;5007627;28;20255;-75
2022/06/24 02:05:25;;;;;;;9.30;8.80;;;;;;;15.95;85.86;92739.31;5005769;28;20199;-75
2022/06/24 02:07:50;;;;;;;10.20;9.40;;;;;;;16.01;86.33;92753.88;5009101;28;20216;-75
2022/06/24 02:15:44;;;;;;;9.63;9.13;;;;;;;15.87;86.71;92753.22;5007298;28;20458;-75
2022/06/24 02:18:09;;;;;;;8.57;8.17;;;;;;;15.85;86.72;92753.53;5007541;28;20223;-75
2022/06/24 02:20:35;;;;;;;9.13;8.60;;;;;;;15.71;86.82;92750.25;5007006;28;20208;-75
2022/06/24 02:23:00;;;;;;;9.47;8.83;;;;;;;15.80;87.07;92752.88;5007696;28;20200;-75
2022/06/24 02:25:25;;;;;;;9.70;9.20;;;;;;;15.83;87.56;92763.59;5009904;28;20267;-75
2022/06/24 02:27:51;;;;;;;10.43;9.60;;;;;;;15.61;89.00;92752.41;5011361;28;20250;-75
2022/06/24 02:30:16;;;;;;;9.73;9.00;;;;;;;15.63;89.07;92758.09;5007812;28;20199;-76
2022/06/24 02:32:42;;;;;;;9.77;9.27;;;;;;;15.59;89.61;92759.81;5004004;28;20231;-75
2022/06/24 02:35:07;;;;;;;10.40;9.47;;;;;;;15.66;89.44;92768.03;5008331;28;20198;-75
2022/06/24 02:37:33;;;;;;;9.20;8.70;;;;;;;15.59;89.65;92776.38;5001934;28;20228;-76
2022/06/24 02:40:45;;;;;;;9.27;8.67;;;;;;;15.55;89.26;92769.38;4991301;28;20193;-75
2022/06/24 02:42:43;;;;;;;9.73;8.97;;;;;;;15.66;88.62;92771.44;5008994;28;20277;-75
2022/06/24 02:45:09;;;;;;;9.47;8.87;;;;;;;15.74;88.20;92777.81;5007190;28;20195;-75
2022/06/24 02:47:34;;;;;;;9.37;8.87;;;;;;;15.63;88.29;92779.16;5005083;28;20251;-76
2022/06/24 02:49:59;;;;;;;9.17;8.60;;;;;;;15.50;87.81;92748.50;5005593;28;20208;-75
2022/06/24 02:52:25;;;;;;;9.57;8.90;;;;;;;15.77;87.93;92771.94;5007372;28;20228;-75
2022/06/24 02:54:50;;;;;;;8.50;8.03;;;;;;;15.82;87.15;92767.31;5006292;28;20183;-75
2022/06/24 02:57:16;;;;;;;9.70;9.20;;;;;;;15.88;86.78;92765.31;5003199;28;20240;-75
2022/06/24 02:59:41;;;;;;;9.17;8.47;;;;;;;16.16;86.90;92774.50;5006822;28;20864;-76
2022/06/24 03:02:06;;;;;;;9.70;8.93;;;;;;;16.50;84.86;92766.66;5002439;28;20227;-76
2022/06/24 03:04:32;;;;;;;9.80;8.97;;;;;;;16.82;82.97;92768.03;5004290;28;20180;-76
2022/06/24 03:06:57;;;;;;;9.27;8.67;;;;;;;16.90;82.08;92760.09;5006390;28;20238;-75
2022/06/24 03:09:22;;;;;;;9.77;9.17;;;;;;;17.29;79.67;92762.50;5006123;28;20815;-75
2022/06/24 03:11:48;;;;;;;10.53;9.70;;;;;;;17.63;78.33;92781.97;5003260;28;20228;-75
2022/06/24 03:14:13;;;;;;;9.60;8.93;;;;;;;17.46;78.22;92737.94;5006348;28;20199;-76
2022/06/24 03:16:39;;;;;;;9.20;8.60;;;;;;;17.34;79.27;92762.31;5002076;28;20240;-75
2022/06/24 03:19:04;;;;;;;8.63;8.13;;;;;;;16.86;81.54;92732.03;5004637;28;20191;-75
2022/06/24 03:21:29;;;;;;;9.30;8.70;;;;;;;16.75;83.49;92762.44;4986072;28;20872;-76
2022/06/24 03:23:55;;;;;;;10.10;9.47;;;;;;;16.86;83.52;92769.72;4990855;28;20224;-76
2022/06/24 03:26:20;;;;;;;9.60;9.00;;;;;;;16.93;84.03;92775.31;4987116;28;20252;-75
2022/06/24 03:28:45;;;;;;;10.80;9.90;;;;;;;17.11;83.25;92776.03;4986326;28;20188;-75
2022/06/24 03:31:14;;;;;;;10.70;9.80;;;;;;;17.16;83.43;92781.94;4983079;28;20230;-76
2022/06/24 03:33:39;;;;;;;9.83;9.23;;;;;;;17.02;83.44;92776.06;4982211;28;20212;-75
2022/06/24 03:36:09;;;;;;;10.90;9.90;;;;;;;17.00;83.42;92780.09;4983199;28;20249;-75
2022/06/24 03:38:35;;;;;;;10.23;9.63;;;;;;;17.06;83.47;92798.09;4982367;28;20222;-75
2022/06/24 03:41:00;;;;;;;10.30;9.63;;;;;;;17.24;83.04;92789.06;4982121;28;20283;-75
2022/06/24 03:43:25;;;;;;;10.40;9.70;;;;;;;17.29;83.31;92777.56;4984823;28;20209;-76
2022/06/24 03:45:59;;;;;;;11.27;10.37;;;;;;;17.57;82.96;92792.69;4986053;28;20228;-76
2022/06/24 03:48:25;;;;;;;11.37;10.60;;;;;;;17.92;82.48;92790.69;5000530;28;20191;-75
2022/06/24 03:50:50;;;;;;;12.43;10.80;;;;;;;18.78;78.36;92785.66;5003561;28;20240;-72
2022/06/24 03:53:15;;;;;;;11.07;10.27;;;;;;;18.74;77.91;92784.75;5003197;28;20207;-73
2022/06/24 03:55:41;;;;;;;10.37;9.67;;;;;;;18.38;78.58;92803.81;5003679;28;20221;-74
2022/06/24 03:58:06;;;;;;;11.50;10.70;;;;;;;17.91;82.18;92794.44;4999413;28;20216;-73
2022/06/24 04:00:32;;;;;;;11.33;10.43;;;;;;;17.72;82.96;92786.13;5002224;28;20249;-74
2022/06/24 04:02:57;;;;;;;11.67;10.57;;;;;;;17.56;83.19;92791.16;5004903;28;20195;-74
2022/06/24 04:05:23;;;;;;;11.07;10.40;;;;;;;17.42;84.40;92768.66;5002461;28;20201;-76
2022/06/24 04:07:48;;;;;;;11.73;10.57;;;;;;;17.24;85.30;92775.09;5000276;28;20228;-72
2022/06/24 04:10:13;;;;;;;12.60;11.03;;;;;;;17.67;85.13;92788.16;5003150;28;20204;-72
2022/06/24 04:12:39;;;;;;;11.67;10.67;;;;;;;17.69;85.87;92759.56;5002127;28;20234;-74
2022/06/24 04:15:14;;;;;;;12.60;11.40;;;;;;;17.75;86.12;92772.28;5003285;28;20203;-74
2022/06/24 04:17:39;;;;;;;14.87;13.53;;;;;;;17.83;85.29;92781.25;5002561;28;20231;-76
2022/06/24 04:20:06;;;;;;;14.27;13.07;;;;;;;17.73;86.38;92784.28;5003295;28;20197;-74
2022/06/24 04:22:31;;;;;;;12.50;11.37;;;;;;;17.63;85.88;92787.25;5002076;28;20228;-76
2022/06/24 04:24:57;;;;;;;13.70;12.50;;;;;;;17.82;85.30;92792.94;5003345;28;20206;-76
2022/06/24 04:27:22;;;;;;;14.70;12.40;;;;;;;17.70;86.30;92787.56;5003204;28;20244;-76
2022/06/24 04:29:48;;;;;;;13.67;12.27;;;;;;;17.80;86.43;92793.25;5003567;28;20208;-75
2022/06/24 04:32:13;;;;;;;13.27;12.10;;;;;;;17.90;85.82;92792.13;5004265;28;20228;-79
2022/06/24 04:34:39;;;;;;;15.37;14.07;;;;;;;17.79;86.04;92785.66;5004195;28;20199;-79
2022/06/24 04:37:06;;;;;;;15.07;13.57;;;;;;;18.12;86.16;92805.03;4983673;28;20238;-80
2022/06/24 04:39:31;;;;;;;13.23;12.17;;;;;;;18.03;85.80;92785.81;4983783;28;20268;-80
2022/06/24 04:41:56;;;;;;;14.77;13.53;;;;;;;17.68;87.31;92769.38;4997128;28;20229;-81
2022/06/24 04:44:22;;;;;;;15.23;13.77;;;;;;;17.69;87.97;92781.47;5003186;28;20260;-81
2022/06/24 04:46:47;;;;;;;14.03;12.80;;;;;;;17.94;87.62;92800.94;4999931;28;20229;-81
2022/06/24 04:49:13;;;;;;;16.90;13.73;;;;;;;17.91;89.52;92818.22;5002825;28;20211;-80
2022/06/24 04:51:38;;;;;;;14.90;13.47;;;;;;;18.06;86.79;92795.75;4998487;28;20217;-79
2022/06/24 04:54:03;;;;;;;13.73;12.63;;;;;;;18.32;86.26;92820.94;5001572;28;20198;-80
2022/06/24 04:56:29;;;;;;;15.90;14.50;;;;;;;17.90;86.68;92789.47;5000708;28;20216;-80
2022/06/24 04:58:55;;;;;;;15.90;14.57;;;;;;;18.31;85.83;92781.59;4985911;28;20212;-80
2022/06/24 05:01:21;;;;;;;15.97;14.37;;;;;;;18.66;85.09;92804.88;5000620;28;20227;-81
2022/06/24 05:03:46;;;;;;;14.43;13.03;;;;;;;20.08;78.35;92830.59;5004345;28;20210;-74
2022/06/24 05:06:12;;;;;;;14.40;13.20;;;;;;;20.84;74.55;92824.56;5002102;28;20839;-75
2022/06/24 05:08:37;;;;;;;13.40;12.20;;;;;;;22.21;69.27;92832.44;5005249;28;20189;-74
2022/06/24 05:11:03;;;;;;;14.77;12.17;;;;;;;22.38;67.58;92831.34;5004705;28;20229;-74
2022/06/24 05:13:28;;;;;;;14.65;13.18;;;;;;;23.96;62.92;92833.81;5004669;28;20184;-74
2022/06/24 05:15:54;;;;;;;14.23;12.82;;;;;;;24.30;60.46;92838.22;5004746;28;20248;-74
2022/06/24 05:18:20;;;;;;;13.68;12.48;;;;;;;24.58;59.05;92842.09;4999910;28;20254;-74
2022/06/24 05:20:45;;;;;;;13.93;12.63;;;;;;;25.11;58.44;92849.00;5004760;28;20217;-73
2022/06/24 05:23:11;;;;;;;13.48;12.38;;;;;;;25.82;54.80;92845.25;5002170;28;20236;-74
2022/06/24 05:25:37;;;;;;;12.90;11.60;;;;;;;26.10;53.71;92842.16;5002615;28;20200;-74
2022/06/24 05:28:03;;;;;;;14.13;12.65;;;;;;;24.51;59.13;92843.91;5000714;28;20181;-75
2022/06/24 05:30:28;;;;;;;13.68;12.38;;;;;;;23.33;62.51;92818.19;4992228;28;20189;-72
2022/06/24 05:32:53;;;;;;;14.20;12.82;;;;;;;22.57;66.31;92855.34;5004527;28;20195;-72
2022/06/24 05:35:19;;;;;;;13.27;12.10;;;;;;;22.73;66.49;92853.44;5006316;28;20185;-73
2022/06/24 05:37:44;;;;;;;13.75;12.52;;;;;;;25.26;58.07;92866.00;5004963;28;20251;-72
2022/06/24 05:40:11;;;;;;;11.90;10.93;;;;;;;27.83;51.26;92887.75;5002100;28;20197;-71
2022/06/24 05:42:36;;;;;;;13.38;12.10;;;;;;;26.49;52.39;92886.84;5003954;28;20234;-73
2022/06/24 05:45:01;;;;;;;11.95;10.75;;;;;;;24.47;59.49;92883.09;5002379;28;20201;-72
2022/06/24 05:47:27;;;;;;;12.63;11.63;;;;;;;22.94;64.65;92864.53;5004035;28;20230;-73
2022/06/24 05:49:52;;;;;;;11.35;10.45;;;;;;;24.97;57.68;92870.19;5004344;28;20191;-72
2022/06/24 05:55:02;;;;;;;10.73;9.93;;;;;;;25.57;55.44;92871.00;5001918;28;20219;-72
2022/06/24 05:55:04;;;;;;;9.55;8.88;;;;;;;28.02;47.27;92885.50;5002794;28;20196;-73
2022/06/24 05:57:29;;;;;;;9.50;8.80;;;;;;;31.02;40.54;92886.28;4999578;28;20215;-72
2022/06/24 05:59:55;;;;;;;9.32;8.65;;;;;;;34.03;35.00;92902.91;5002173;28;20188;-70
2022/06/24 06:02:22;;;;;;;8.50;7.80;;;;;;;33.44;34.66;92901.31;4999592;28;20230;-73
2022/06/24 06:04:48;;;;;;;8.43;7.70;;;;;;;33.88;33.18;92914.44;5002446;28;20263;-72
2022/06/24 06:07:13;;;;;;;9.02;8.27;;;;;;;28.81;43.50;92904.06;4999440;28;20223;-72
2022/06/24 06:09:41;;;;;;;9.07;8.38;;;;;;;25.51;52.09;92883.13;5004657;28;20215;-71
2022/06/24 06:12:07;;;;;;;12.32;11.20;;;;;;;23.14;60.40;92892.00;5003767;28;20251;-69
2022/06/24 06:14:32;;;;;;;10.38;9.57;;;;;;;23.15;61.74;92891.66;5008573;28;20179;-69
2022/06/24 06:16:57;;;;;;;10.48;9.70;;;;;;;23.81;59.58;92888.81;5007773;28;21049;-69
2022/06/24 06:19:23;;;;;;;10.68;9.80;;;;;;;25.86;53.77;92872.84;5003343;28;20183;-71
2022/06/24 06:21:48;;;;;;;9.55;8.93;;;;;;;28.38;46.78;92890.94;5004415;28;20239;-68
2022/06/24 06:24:14;;;;;;;9.70;8.80;;;;;;;29.49;44.00;92892.88;5005350;28;20184;-70
2022/06/24 06:26:39;;;;;;;9.43;8.82;;;;;;;31.06;39.87;92900.50;5004482;28;20254;-69
2022/06/24 06:29:04;;;;;;;9.10;8.38;;;;;;;32.85;35.19;92897.63;5005656;28;20196;-68
2022/06/24 06:31:30;;;;;;;9.85;9.05;;;;;;;30.51;39.65;92865.47;5004015;28;20223;-68
2022/06/24 06:33:56;;;;;;;8.52;7.82;;;;;;;34.20;33.40;92890.16;5005665;28;20184;-69
2022/06/24 06:36:21;;;;;;;8.27;7.57;;;;;;;35.88;29.75;92879.97;5000308;28;20244;-70
2022/06/24 06:38:47;;;;;;;7.80;7.28;;;;;;;35.94;30.51;92885.63;5007391;28;20249;-68
2022/06/24 06:41:14;;;;;;;7.40;6.90;;;;;;;37.13;27.37;92897.63;5000343;28;20219;-68
2022/06/24 06:43:39;;;;;;;7.97;7.40;;;;;;;34.52;31.58;92878.66;5003398;28;20733;-67
2022/06/24 06:46:08;;;;;;;7.47;6.93;;;;;;;34.59;31.54;92873.84;5004294;28;20263;-67
2022/06/24 06:48:34;;;;;;;7.55;6.85;;;;;;;33.24;33.24;92868.00;5005880;28;20245;-68
2022/06/24 06:50:59;;;;;;;8.23;7.43;;;;;;;33.46;32.78;92863.75;5004793;28;20224;-68
2022/06/24 06:53:26;;;;;;;7.68;7.10;;;;;;;32.35;34.25;92867.81;5005823;28;20214;-71
2022/06/24 06:55:52;;;;;;;7.68;7.00;;;;;;;28.06;42.25;92845.25;5005641;28;20263;-70
2022/06/24 06:58:18;;;;;;;8.40;7.82;;;;;;;25.98;48.64;92840.47;5004323;28;20218;-70
2022/06/24 07:00:44;;;;;;;8.73;8.02;;;;;;;25.19;51.68;92855.19;5001897;28;20230;-69
2022/06/24 07:03:10;;;;;;;9.48;8.88;;;;;;;24.30;56.27;92840.88;5004854;28;20196;-68
2022/06/24 07:05:36;;;;;;;10.65;10.02;;;;;;;23.35;59.54;92836.50;5005127;28;20187;-69
2022/06/24 07:08:02;;;;;;;9.68;9.07;;;;;;;23.41;58.62;92838.53;5006875;28;20211;-70
2022/06/24 07:10:27;;;;;;;9.95;8.98;;;;;;;23.90;56.60;92840.56;5004468;28;20238;-69
2022/06/24 07:12:52;;;;;;;10.10;9.20;;;;;;;23.23;60.04;92834.72;5004790;28;20217;-69
2022/06/24 07:15:18;;;;;;;9.70;9.05;;;;;;;23.25;61.13;92845.81;5001538;28;20211;-69
2022/06/24 07:17:43;;;;;;;10.57;9.77;;;;;;;22.74;61.12;92844.31;5003285;28;20231;-69
2022/06/24 07:20:09;;;;;;;11.00;10.30;;;;;;;23.10;61.90;92835.19;5002911;28;20194;-69
2022/06/24 07:22:35;;;;;;;10.52;9.82;;;;;;;22.79;60.78;92833.41;4984025;28;20224;-69
2022/06/24 07:25:01;;;;;;;10.10;9.30;;;;;;;22.98;60.51;92825.47;5004230;28;20264;-69
2022/06/24 07:27:26;;;;;;;9.77;8.90;;;;;;;23.45;58.05;92828.72;4985156;28;20230;-70
2022/06/24 07:29:51;;;;;;;10.45;9.75;;;;;;;23.13;60.19;92834.53;4985480;28;20187;-69
2022/06/24 07:32:17;;;;;;;10.73;9.85;;;;;;;23.08;59.67;92826.78;5000577;28;20225;-71
2022/06/24 07:34:42;;;;;;;11.40;10.60;;;;;;;22.79;61.65;92829.97;5005238;28;20214;-71
2022/06/24 07:37:08;;;;;;;11.15;10.45;;;;;;;23.39;59.64;92848.75;5007111;28;20248;-69
2022/06/24 07:39:33;;;;;;;11.05;10.25;;;;;;;23.22;60.16;92837.75;5003977;28;20272;-69
2022/06/24 07:41:59;;;;;;;10.43;9.60;;;;;;;23.15;59.98;92835.69;5003305;28;20225;-69
2022/06/24 07:44:24;;;;;;;11.63;10.82;;;;;;;22.20;64.00;92830.13;5004854;28;20203;-69
2022/06/24 07:46:50;;;;;;;11.27;10.57;;;;;;;22.08;63.52;92823.03;5004733;28;20226;-69
2022/06/24 07:49:16;;;;;;;11.00;10.00;;;;;;;22.71;61.02;92823.72;5003541;28;20220;-69
2022/06/24 07:51:42;;;;;;;10.82;10.10;;;;;;;22.78;62.13;92839.09;5000342;28;20316;-68
2022/06/24 07:54:10;;;;;;;12.25;11.13;;;;;;;22.78;62.08;92833.75;5004147;28;20175;-69
2022/06/24 07:56:57;;;;;;;10.13;9.50;;;;;;;23.27;60.78;92829.50;5001624;28;20226;-69
2022/06/24 07:59:29;;;;;;;11.70;10.68;;;;;;;23.07;60.80;92827.91;5003408;28;20188;-69
2022/06/24 08:01:57;;;;;;;11.35;10.65;;;;;;;23.15;60.38;92824.25;5002938;28;20217;-69
2022/06/24 08:04:24;;;;;;;10.70;10.00;;;;;;;23.26;59.56;92828.72;5007489;28;20259;-66
2022/06/24 08:06:52;;;;;;;10.68;9.95;;;;;;;23.29;58.91;92817.38;5006968;28;20222;-68
2022/06/24 08:09:19;;;;;;;11.15;10.05;;;;;;;23.06;60.22;92819.16;5005257;28;20222;-67
2022/06/24 08:11:45;;;;;;;10.30;9.48;;;;;;;23.31;59.58;92809.78;5002608;28;20226;-68
2022/06/24 08:14:11;;;;;;;10.88;9.93;;;;;;;23.77;58.63;92822.06;5003989;28;20218;-69
2022/06/24 08:16:36;;;;;;;10.48;9.63;;;;;;;23.49;59.60;92831.44;5001277;28;20247;-68
2022/06/24 08:19:02;;;;;;;10.48;9.68;;;;;;;23.75;57.92;92829.66;4999571;28;20286;-68
2022/06/24 08:21:27;;;;;;;11.15;10.25;;;;;;;23.53;59.93;92829.63;5001545;28;20230;-69
2022/06/24 08:23:53;;;;;;;9.93;9.27;;;;;;;23.86;58.33;92834.41;5001831;28;20206;-69
2022/06/24 08:26:18;;;;;;;11.20;10.43;;;;;;;23.29;60.10;92832.56;4999091;28;20234;-68
2022/06/24 08:28:44;;;;;;;12.80;10.35;;;;;;;23.95;58.78;92826.94;5005201;28;20189;-68
2022/06/24 08:31:10;;;;;;;10.57;9.68;;;;;;;23.90;57.07;92809.34;5001636;28;20246;-68
2022/06/24 08:33:36;;;;;;;10.50;9.80;;;;;;;24.18;56.47;92809.06;5000738;28;20204;-69
2022/06/24 08:36:02;;;;;;;10.05;9.27;;;;;;;24.18;56.86;92817.84;5002807;28;20233;-69
2022/06/24 08:38:28;;;;;;;10.18;9.57;;;;;;;23.75;56.92;92820.91;5000982;28;20222;-70
2022/06/24 08:40:54;;;;;;;11.52;10.68;;;;;;;23.65;57.88;92824.13;5002726;28;20253;-70
2022/06/24 08:43:23;;;;;;;10.02;9.35;;;;;;;23.19;58.69;92831.19;5003576;28;20205;-73
2022/06/24 08:45:49;;;;;;;9.40;8.80;;;;;;;23.40;59.97;92829.00;5002209;28;20230;-70
2022/06/24 08:48:15;;;;;;;9.88;8.93;;;;;;;23.58;57.23;92830.09;5003648;28;20192;-70
2022/06/24 08:50:41;;;;;;;10.13;9.52;;;;;;;23.88;56.39;92822.25;5001282;28;20232;-70
2022/06/24 08:53:08;;;;;;;9.60;8.75;;;;;;;23.47;60.62;92825.72;5003124;28;20221;-70
2022/06/24 08:55:36;;;;;;;9.85;9.05;;;;;;;23.75;56.68;92840.31;5000675;28;20193;-71
2022/06/24 08:58:06;;;;;;;9.45;8.93;;;;;;;23.91;55.55;92826.88;5003912;28;20312;-71
2022/06/24 09:00:31;;;;;;;9.52;8.93;;;;;;;23.89;57.38;92828.38;5001005;28;20207;-69
2022/06/24 09:02:57;;;;;;;9.50;8.90;;;;;;;23.83;57.93;92841.19;5002122;28;20191;-69
2022/06/24 09:05:25;;;;;;;10.82;9.73;;;;;;;24.22;57.47;92837.34;5001017;28;20187;-69
2022/06/24 09:08:16;;;;;;;9.80;9.30;;;;;;;24.16;56.88;92825.44;5000857;28;20264;-70
2022/06/24 09:10:43;;;;;;;10.25;9.55;;;;;;;24.35;56.21;92836.03;5005216;28;20229;-70
2022/06/24 09:13:21;;;;;;;10.18;9.30;;;;;;;24.10;55.73;92824.19;5001195;28;20788;-70
2022/06/24 09:15:54;;;;;;;10.32;9.73;;;;;;;23.84;59.38;92825.97;5004737;28;20236;-70
2022/06/24 09:18:23;;;;;;;10.40;9.23;;;;;;;24.32;58.54;92825.28;5000115;28;20205;-69
2022/06/24 09:20:55;;;;;;;9.38;8.77;;;;;;;24.21;55.93;92808.34;4999981;28;20237;-70
2022/06/24 09:23:20;;;;;;;9.60;8.90;;;;;;;24.36;55.91;92826.13;4997719;28;20221;-69
2022/06/24 09:25:48;;;;;;;9.55;9.02;;;;;;;24.32;56.52;92830.63;4999072;28;20227;-70
2022/06/24 09:28:27;;;;;;;9.23;8.55;;;;;;;24.30;56.53;92814.97;5003115;28;20202;-69
2022/06/24 09:31:01;;;;;;;9.82;9.23;;;;;;;24.24;56.07;92819.06;5004196;28;20245;-71
2022/06/24 09:33:27;;;;;;;9.00;8.15;;;;;;;24.45;57.27;92819.41;5002848;28;20191;-68
2022/06/24 09:36:22;;;;;;;7.60;7.22;;;;;;;24.73;54.10;92811.06;5002419;28;20294;-69
2022/06/24 09:39:06;;;;;;;8.73;8.13;;;;;;;24.23;55.83;92806.09;5003864;28;20237;-72
2022/06/24 09:41:54;;;;;;;8.73;8.13;;;;;;;24.15;57.86;92831.13;5001714;28;20238;-71
2022/06/24 09:44:20;;;;;;;9.05;8.45;;;;;;;24.37;55.21;92825.00;5000185;28;20262;-70
2022/06/24 09:46:48;;;;;;;9.82;8.77;;;;;;;24.40;56.36;92832.28;5004254;28;20231;-72
2022/06/24 09:49:19;;;;;;;8.35;7.80;;;;;;;24.37;54.88;92827.66;5006886;28;20185;-70
2022/06/24 09:51:45;;;;;;;8.20;7.60;;;;;;;24.09;54.29;92840.56;5004122;28;20293;-72
2022/06/24 09:54:14;;;;;;;7.95;7.55;;;;;;;24.55;52.43;92840.16;5003498;28;20200;-72
2022/06/24 09:56:40;;;;;;;7.13;6.63;;;;;;;24.28;51.82;92824.47;5003062;28;20237;-71
2022/06/24 10:01:53;;;;;;;8.88;8.38;;;;;;;24.59;51.71;92829.53;5005274;28;20231;-71
2022/06/24 10:04:20;;;;;;;8.00;7.50;;;;;;;24.35;52.88;92832.59;4989938;28;20182;-71
2022/06/24 10:06:48;;;;;;;9.18;8.32;;;;;;;25.29;53.31;92838.53;5003253;28;20241;-71
2022/06/24 10:09:17;;;;;;;7.93;7.30;;;;;;;24.71;51.56;92842.72;5005960;28;20186;-71
2022/06/24 10:11:44;;;;;;;8.13;7.72;;;;;;;24.87;51.06;92824.63;5005703;28;20219;-71
2022/06/24 10:14:12;;;;;;;8.35;7.95;;;;;;;25.06;49.91;92835.94;5005322;28;20241;-71
2022/06/24 10:16:43;;;;;;;12.82;11.57;;;;;;;24.67;51.85;92844.56;5003892;28;20234;-72
2022/06/24 10:19:10;;;;;;;8.27;7.78;;;;;;;24.97;51.22;92856.03;5004682;28;20226;-71
2022/06/24 10:21:37;;;;;;;8.25;7.65;;;;;;;25.14;49.82;92850.94;5003344;28;20233;-72
2022/06/24 10:24:11;;;;;;;8.05;7.47;;;;;;;24.72;45.43;92850.34;5008129;28;20203;-70
2022/06/24 10:26:39;;;;;;;8.45;7.95;;;;;;;25.29;45.90;92849.22;5004336;28;20295;-70
2022/06/24 10:29:04;;;;;;;7.93;7.53;;;;;;;24.75;48.40;92843.50;5007132;28;20230;-70
2022/06/24 10:31:44;;;;;;;7.30;6.80;;;;;;;24.71;48.88;92845.38;5004075;28;20226;-70
2022/06/24 10:34:10;;;;;;;8.40;7.78;;;;;;;24.36;51.13;92842.91;5006078;28;20229;-69
2022/06/24 10:36:35;;;;;;;8.02;7.53;;;;;;;24.41;49.91;92834.59;5002779;28;20261;-70
2022/06/24 10:39:17;;;;;;;7.68;7.28;;;;;;;24.56;49.47;92844.34;5005290;28;20260;-69
2022/06/24 10:41:43;;;;;;;9.02;7.68;;;;;;;24.48;48.26;92839.28;5005503;28;20230;-70
2022/06/24 10:44:29;;;;;;;8.07;7.57;;;;;;;24.98;45.28;92841.56;5005259;28;20187;-71
2022/06/24 10:47:27;;;;;;;7.40;7.07;;;;;;;24.90;46.20;92839.94;5005610;28;20235;-71
2022/06/24 10:49:54;;;;;;;7.70;7.30;;;;;;;25.03;48.51;92835.91;5004726;28;20190;-70
2022/06/24 10:52:48;;;;;;;8.13;7.72;;;;;;;24.74;47.48;92831.31;5003349;28;20235;-70
2022/06/24 10:55:16;;;;;;;8.13;7.63;;;;;;;24.89;50.02;92839.16;5002144;28;20222;-69
2022/06/24 10:57:47;;;;;;;8.27;7.85;;;;;;;24.60;48.71;92826.50;5006040;28;20290;-70
2022/06/24 11:00:19;;;;;;;7.70;7.20;;;;;;;24.65;46.20;92828.09;5005253;28;20276;-69
2022/06/24 11:02:47;;;;;;;7.45;7.05;;;;;;;24.89;45.47;92827.69;5002740;28;20275;-70
2022/06/24 11:05:19;;;;;;;7.32;6.93;;;;;;;25.16;46.88;92829.19;5006028;28;20194;-70
2022/06/24 11:07:46;;;;;;;7.10;6.78;;;;;;;25.43;43.14;92825.38;5004601;28;20246;-71
2022/06/24 11:10:19;;;;;;;7.43;7.13;;;;;;;25.28;42.19;92824.41;5000693;28;20199;-71
2022/06/24 11:12:52;;;;;;;7.68;7.28;;;;;;;25.27;43.45;92830.09;5004900;28;20216;-70
2022/06/24 11:15:18;;;;;;;7.55;7.15;;;;;;;25.55;44.07;92832.38;5004604;28;20207;-71
2022/06/24 11:17:44;;;;;;;8.00;7.47;;;;;;;25.49;45.06;92812.44;5002781;28;20282;-72
2022/06/24 11:20:12;;;;;;;7.60;7.20;;;;;;;25.75;43.11;92807.75;5006966;28;20209;-70
2022/06/24 11:22:45;;;;;;;7.18;6.60;;;;;;;25.76;40.31;92825.34;5002698;28;20322;-70
2022/06/24 11:25:13;;;;;;;7.63;7.22;;;;;;;25.66;42.04;92819.88;5005045;28;20204;-70
2022/06/24 11:27:38;;;;;;;7.78;7.25;;;;;;;24.97;44.81;92835.44;5001210;28;20234;-70
2022/06/24 11:30:05;;;;;;;8.07;7.68;;;;;;;25.09;45.53;92815.75;5002998;28;20347;-71
2022/06/24 11:32:53;;;;;;;8.55;7.85;;;;;;;25.45;42.93;92817.72;5001890;28;20749;-71
2022/06/24 11:35:20;;;;;;;8.30;7.82;;;;;;;25.21;45.33;92821.63;5004843;28;20187;-71
2022/06/24 11:37:45;;;;;;;7.65;7.25;;;;;;;25.18;48.54;92818.94;5002056;28;20222;-70